Terminal Aerodrome Forecast
Issued by NWS

Home | Current Version | Previous Version | Text Only | Print | Product List | Glossary On
Versions: 1 2 3 4 5 6 7 8 9 10 11 12 13 14 15 16 17 18 19 20 21 22 23 24 25 26 27 28 29 30 31
000
FTUS41 KBUF 272300
TAFJHW
TAF
KJHW 272339Z 2800/2824 30006KT P6SM SCT200
     FM280900 32004KT 5SM BR BKN015
     FM281400 33008KT P6SM SCT025
     FM282000 32006KT P6SM SKC
      AMD LTD TO CLD VIS AND WIND=

USA.gov is the U.S. government's official web portal to all federal, state and local government web resources and services.